Asheboro, North Carolina
Current Conditions -  °F | °C
As of 8:55 AM on Monday 22 Dec 2014 (Local Time) from KHBI Reporting Station
Haze Haze  
Wind Chill: 30°   Ceiling: 600
Heat Index: 35°   Visibility: 5mi
Dew Point: 35°   Wind: 7mph
Humidity: 97%   Direction: 20°NNE
Pressure: 30.17"   Gusts: NA
Location:  35.71°N, 79.81°W
Report Text: KHBI 221355Z AUTO 02006KT 5SM BR OVC006 02/02 A3017 RMK AO2 T00190015
Loading
Personal Weather Stations






























Interactive Weather Map New forecast layout! Learn more

10-Day Weather Forecast

Advertisements
Track Severe Weather on mobile